Artemis — PFCB — position and weather

sailwx.info

Track history (hours):
 
Tides and Currents Weather Stations Pressure Air Temp Water Temp Dewpoint Dewpoint Depression Visibility Wind Speed Wind Dir Waves Ship Positions

Artemis (Netherlands)

Ship's website: http://www.tallship-company.com/artemis/gb_artemis.htm

Last reported at 2019-Aug-22 09:31 UTC. Time now 2019-Aug-22 09:33 UTC.
Position N 54°15' E 011°56'.

Length 59 m; draft 3.4 m.

Type: Sailing vessel. MMSI: 244875000.

Date/timePositionNaut miles runAvg speedWind from/ knotsBaromVisibWave heightAir tempDewpointWater temp
2019-Aug-22 09:31N 54°15' E 011°56'3 6.2
2019-Aug-22 08:59N 54°13' E 012°01'3 4.5
2019-Aug-22 08:21N 54°12' E 012°05'3 6.9
2019-Aug-22 07:58N 54°09' E 012°06'3 6.3
2019-Aug-22 07:27N 54°06' E 012°07'0 0.9
2019-Aug-22 06:57N 54°06' E 012°07'0 0.0
2019-Aug-22 06:30N 54°06' E 012°07'0 0.0
2019-Aug-22 04:24N 54°06' E 012°07'0 0.0
2019-Aug-22 03:15N 54°06' E 012°07'0 0.0
2019-Aug-22 02:51N 54°06' E 012°07'0 0.0
2019-Aug-22 01:00N 54°06' E 012°07'0 0.0
2019-Aug-21 22:57N 54°06' E 012°08'0 0.0
2019-Aug-21 21:39N 54°06' E 012°07'0 0.0
2019-Aug-21 21:30N 54°06' E 012°07'0 0.0
2019-Aug-21 20:42N 54°06' E 012°07'0 0.0
2019-Aug-21 20:30N 54°06' E 012°07'0 0.0
2019-Aug-21 18:54N 54°06' E 012°07'0 0.0
2019-Aug-21 18:30N 54°06' E 012°07'0 0.0
2019-Aug-21 17:54N 54°06' E 012°07'1 0.2
2019-Aug-21 15:29N 54°06' E 012°07'3 6.4
2019-Aug-21 15:00N 54°09' E 012°06'3 6.6
2019-Aug-21 14:30N 54°12' E 012°05'3 5.0
2019-Aug-21 13:59N 54°15' E 012°04'2 3.2
2019-Aug-21 13:30N 54°16' E 012°04'2 4.8
2019-Aug-21 13:00N 54°19' E 012°04'3 5.5
2019-Aug-21 12:30N 54°22' E 012°03'7 5.4
2019-Aug-21 11:14N 54°28' E 012°03'1 4.0
2019-Aug-21 11:00N 54°29' E 012°04'3 5.2
2019-Aug-21 10:30N 54°32' E 012°04'2 4.9
2019-Aug-21 10:00N 54°34' E 012°04'6 4.2
2019-Aug-21 08:29N 54°41' E 012°04'1 3.0
2019-Aug-21 08:00N 54°42' E 012°05'2 3.4
2019-Aug-21 07:30N 54°44' E 012°05'2 3.5
2019-Aug-21 07:00N 54°45' E 012°05'0 0.2
2019-Aug-21 06:29N 54°45' E 012°05'0 0.0
2019-Aug-21 05:56N 54°45' E 012°05'0 0.0
2019-Aug-21 05:11N 54°45' E 012°05'0 0.0
2019-Aug-21 04:50N 54°45' E 012°05'0 0.0
2019-Aug-21 04:26N 54°45' E 012°05'0 0.0
2019-Aug-21 03:59N 54°45' E 012°05'0 0.0
2019-Aug-21 03:29N 54°45' E 012°05'0 0.0
2019-Aug-21 02:47N 54°45' E 012°05'0 0.0
2019-Aug-21 02:29N 54°45' E 012°05'0 0.0
2019-Aug-21 01:38N 54°45' E 012°05'0 0.0
2019-Aug-21 01:02N 54°45' E 012°05'0 0.0
2019-Aug-21 00:50N 54°45' E 012°05'0 0.0
2019-Aug-21 00:29N 54°45' E 012°05'0 0.0
2019-Aug-20 23:44N 54°45' E 012°05'0 0.0
2019-Aug-20 23:08N 54°45' E 012°05'0 0.0
2019-Aug-20 22:41N 54°45' E 012°05'0 0.0
2019-Aug-20 22:29N 54°45' E 012°05'0 0.0
2019-Aug-20 21:59N 54°45' E 012°05'0 0.0
2019-Aug-20 21:29N 54°45' E 012°05'0 0.0
2019-Aug-20 21:00N 54°45' E 012°05'16 6.6
2019-Aug-20 18:34N 54°53' E 012°30'4 7.1
2019-Aug-20 18:02N 54°56' E 012°33'1 7.5
2019-Aug-20 17:57N 54°57' E 012°34'4 7.3
2019-Aug-20 17:28N 55°00' E 012°36'3 7.2
2019-Aug-20 17:00N 55°03' E 012°39'3 7.1
2019-Aug-20 16:30N 55°06' E 012°41'4 6.8
2019-Aug-20 15:57N 55°10' E 012°43'2 5.3
2019-Aug-20 15:30N 55°12' E 012°46'4 6.2
2019-Aug-20 14:55N 55°13' E 012°52'2 5.7
2019-Aug-20 14:30N 55°13' E 012°56'2 4.8
2019-Aug-20 14:00N 55°14' E 012°60'2 4.4
2019-Aug-20 13:30N 55°15' E 013°03'3 4.8
2019-Aug-20 12:55N 55°15' E 013°08'3 4.3
2019-Aug-20 12:18N 55°15' E 013°13'2 4.1
2019-Aug-20 11:47N 55°16' E 013°17'1 4.4
2019-Aug-20 11:28N 55°16' E 013°19'37 1.5
2019-Aug-19 10:48N 55°10' E 014°23'1 2.7
2019-Aug-19 10:29N 55°09' E 014°25'2 3.2
2019-Aug-19 09:47N 55°08' E 014°28'1 3.2
2019-Aug-19 09:27N 55°08' E 014°30'2 3.6
2019-Aug-19 08:58N 55°07' E 014°32'2 3.3
2019-Aug-19 08:29N 55°06' E 014°34'1 3.0
2019-Aug-19 08:00N 55°05' E 014°36'2 3.3
2019-Aug-19 07:30N 55°05' E 014°39'2 1.5
2019-Aug-19 06:25N 55°06' E 014°42'0 0.0
2019-Aug-19 05:49N 55°06' E 014°42'0 0.0
2019-Aug-19 05:25N 55°06' E 014°42'0 0.0
2019-Aug-19 04:55N 55°06' E 014°42'0 0.0
2019-Aug-19 04:25N 55°06' E 014°42'0 0.0
2019-Aug-19 03:55N 55°06' E 014°42'0 0.0
2019-Aug-19 03:25N 55°06' E 014°42'0 0.0
2019-Aug-19 02:49N 55°06' E 014°42'0 0.0
2019-Aug-19 02:25N 55°06' E 014°42'0 0.0
2019-Aug-19 01:55N 55°06' E 014°42'0 0.0
2019-Aug-19 01:25N 55°06' E 014°42'0 0.0
2019-Aug-19 00:43N 55°06' E 014°42'0 0.0
2019-Aug-19 00:19N 55°06' E 014°42'0 0.0
2019-Aug-18 23:49N 55°06' E 014°42'0 0.0
2019-Aug-18 23:25N 55°06' E 014°42'0 0.0
2019-Aug-18 22:55N 55°06' E 014°42'0 0.0
2019-Aug-18 22:19N 55°06' E 014°42'0 0.0
2019-Aug-18 21:55N 55°06' E 014°42'0 0.0
2019-Aug-18 21:25N 55°06' E 014°42'0 0.0
2019-Aug-18 20:49N 55°06' E 014°42'0 0.0
2019-Aug-18 19:43N 55°06' E 014°42'0 0.0
2019-Aug-18 19:25N 55°06' E 014°42'0 0.0
2019-Aug-18 18:55N 55°06' E 014°42'0 0.0
2019-Aug-18 18:19N 55°06' E 014°42'0 0.0
2019-Aug-18 17:49N 55°06' E 014°42'0 0.0
2019-Aug-18 17:25N 55°06' E 014°42'0 0.0
2019-Aug-18 16:37N 55°06' E 014°42'0 0.0
2019-Aug-18 16:13N 55°06' E 014°42'0 0.0
2019-Aug-18 15:55N 55°06' E 014°42'0 0.0
2019-Aug-18 15:19N 55°06' E 014°42'0 0.0
2019-Aug-18 14:55N 55°06' E 014°42'0 0.0
2019-Aug-18 14:25N 55°06' E 014°42'0 0.0
2019-Aug-18 13:55N 55°06' E 014°42'0 0.0
2019-Aug-18 13:25N 55°06' E 014°42'0 0.0
2019-Aug-18 12:55N 55°06' E 014°42'0 0.0
2019-Aug-18 11:55N 55°06' E 014°42'0 0.0
2019-Aug-18 10:37N 55°06' E 014°42'0 0.0
2019-Aug-18 10:07N 55°06' E 014°42'0 0.0
2019-Aug-18 09:55N 55°06' E 014°42'0 0.0
2019-Aug-18 09:25N 55°06' E 014°42'0 0.0
2019-Aug-18 08:31N 55°06' E 014°42'0 0.1
2019-Aug-18 08:25N 55°06' E 014°42'0 0.0
2019-Aug-18 07:49N 55°06' E 014°42'0 0.0
2019-Aug-18 06:43N 55°06' E 014°42'0 0.0
2019-Aug-18 06:25N 55°06' E 014°42'0 0.0
2019-Aug-18 05:49N 55°06' E 014°42'0 0.0
2019-Aug-18 05:30N 55°06' E 014°42'0 0.3
2019-Aug-18 05:00N 55°06' E 014°41'2 4.8
2019-Aug-18 04:30N 55°05' E 014°38'2 5.1
2019-Aug-18 04:00N 55°04' E 014°34'3 5.1
2019-Aug-18 03:29N 55°02' E 014°30'43 5.9
2019-Aug-17 20:08N 54°44' E 013°21'1 6.0
2019-Aug-17 19:59N 54°44' E 013°20'3 4.0
2019-Aug-17 19:12N 54°42' E 013°15'1 6.0
2019-Aug-17 19:00N 54°42' E 013°13'3 6.1
2019-Aug-17 18:29N 54°41' E 013°08'6 6.2
2019-Aug-17 17:29N 54°38' E 012°58'3 6.4
2019-Aug-17 17:00N 54°37' E 012°54'3 6.1
2019-Aug-17 16:30N 54°35' E 012°49'4 4.0
2019-Aug-17 15:35N 54°34' E 012°43'0 3.2
2019-Aug-17 15:30N 54°34' E 012°43'3 4.2
2019-Aug-17 14:54N 54°33' E 012°39'3 3.0
2019-Aug-17 13:51N 54°31' E 012°34'2 3.1
2019-Aug-17 13:19N 54°31' E 012°31'4 3.6
2019-Aug-17 12:07N 54°28' E 012°26'1 5.3
2019-Aug-17 11:54N 54°27' E 012°24'2 4.4
2019-Aug-17 11:30N 54°26' E 012°22'11 5.6
2019-Aug-17 09:29N 54°17' E 012°10'2 5.2
2019-Aug-17 09:01N 54°15' E 012°08'2 4.6
2019-Aug-17 08:30N 54°13' E 012°06'4 6.2
2019-Aug-17 07:53N 54°09' E 012°06'3 6.5
2019-Aug-17 07:29N 54°06' E 012°06'1 0.3
2019-Aug-17 03:58N 54°06' E 012°07'0 0.0
2019-Aug-17 02:16N 54°06' E 012°07'0 0.0
2019-Aug-16 23:46N 54°06' E 012°07'0 0.0
2019-Aug-16 21:49N 54°06' E 012°07'0 0.0
2019-Aug-16 20:07N 54°06' E 012°07'0 0.0
2019-Aug-16 14:25N 54°06' E 012°07'0 0.0
2019-Aug-16 10:55N 54°06' E 012°07'0 0.0
2019-Aug-16 08:55N 54°06' E 012°07'0 0.0
2019-Aug-16 08:25N 54°06' E 012°07'0 0.0
2019-Aug-16 05:43N 54°06' E 012°07'0 0.0
2019-Aug-16 05:28N 54°06' E 012°07'0 0.0
2019-Aug-16 01:19N 54°06' E 012°07'0 0.0
2019-Aug-16 00:55N 54°06' E 012°07'0 0.0
2019-Aug-15 22:04N 54°06' E 012°07'0 0.0
2019-Aug-15 19:13N 54°06' E 012°07'0 0.0
2019-Aug-15 18:58N 54°06' E 012°07'2 0.4
2019-Aug-15 14:44N 54°07' E 012°06'1 6.1
2019-Aug-15 14:30N 54°08' E 012°06'3 6.0
2019-Aug-15 14:00N 54°11' E 012°05'5 5.2
2019-Aug-15 12:58N 54°12' E 011°56'1 3.0
2019-Aug-15 12:29N 54°12' E 011°54'3 5.5
2019-Aug-15 12:00N 54°13' E 011°58'5 4.8
2019-Aug-15 10:59N 54°14' E 012°06'2 4.2
2019-Aug-15 10:31N 54°15' E 012°09'2 4.0
2019-Aug-15 09:59N 54°16' E 012°12'3 3.6
2019-Aug-15 09:09N 54°18' E 012°16'1 2.6
2019-Aug-15 08:44N 54°19' E 012°17'1 2.9
2019-Aug-15 08:30N 54°19' E 012°18'1 1.6
2019-Aug-15 07:41N 54°19' E 012°20'0 0.4
2019-Aug-15 07:30N 54°19' E 012°20'0 0.0
2019-Aug-15 06:45N 54°19' E 012°20'0 0.0
2019-Aug-15 06:03N 54°19' E 012°20'0 0.0
2019-Aug-15 04:45N 54°19' E 012°20'0 0.0
2019-Aug-15 04:30N 54°19' E 012°20'0 0.0
2019-Aug-15 04:00N 54°19' E 012°20'0 0.0
2019-Aug-15 03:30N 54°19' E 012°20'0 0.0
2019-Aug-15 03:00N 54°19' E 012°20'0 0.0
2019-Aug-15 02:30N 54°19' E 012°20'0 0.0
2019-Aug-15 02:00N 54°19' E 012°20'0 0.0
2019-Aug-15 01:27N 54°19' E 012°20'0 0.0
2019-Aug-15 00:27N 54°19' E 012°20'0 0.0
2019-Aug-15 00:00N 54°19' E 012°20'4 1.5
2019-Aug-14 21:04N 54°24' E 012°21'1 6.7
2019-Aug-14 20:57N 54°24' E 012°22'3 6.7
2019-Aug-14 20:30N 54°27' E 012°24'10 6.3
2019-Aug-14 18:59N 54°36' E 012°31'3 6.0
2019-Aug-14 18:30N 54°39' E 012°32'3 6.6
2019-Aug-14 18:00N 54°42' E 012°32'16 7.4
2019-Aug-14 15:52N 54°58' E 012°35'3 8.0
2019-Aug-14 15:30N 55°01' E 012°36'4 7.6
2019-Aug-14 15:00N 55°04' E 012°37'4 8.0
2019-Aug-14 14:29N 55°08' E 012°37'3 7.0
2019-Aug-14 14:00N 55°12' E 012°36'4 7.8
2019-Aug-14 13:30N 55°16' E 012°36'3 6.5
2019-Aug-14 13:00N 55°19' E 012°37'2 4.0
2019-Aug-14 12:30N 55°21' E 012°37'2 3.7
2019-Aug-14 11:59N 55°23' E 012°38'2 3.6
2019-Aug-14 11:29N 55°24' E 012°39'2 3.1
2019-Aug-14 11:00N 55°26' E 012°39'2 3.5
2019-Aug-14 10:30N 55°28' E 012°40'2 4.2
2019-Aug-14 10:00N 55°30' E 012°41'2 3.7
2019-Aug-14 09:30N 55°31' E 012°41'2 3.4
2019-Aug-14 09:00N 55°33' E 012°41'3 5.3
2019-Aug-14 08:30N 55°36' E 012°42'4 8.5
2019-Aug-14 08:00N 55°40' E 012°40'3 5.5
2019-Aug-14 07:30N 55°42' E 012°36'1 1.1
2019-Aug-14 06:58N 55°41' E 012°36'0 0.0
2019-Aug-14 06:28N 55°41' E 012°36'0 0.0
2019-Aug-14 05:58N 55°41' E 012°36'0 0.0
2019-Aug-14 05:28N 55°41' E 012°36'0 0.0
2019-Aug-14 04:58N 55°41' E 012°36'0 0.0
2019-Aug-14 04:28N 55°41' E 012°36'0 0.0
2019-Aug-14 03:58N 55°41' E 012°36'0 0.0
2019-Aug-14 03:29N 55°41' E 012°36'0 0.0
2019-Aug-14 02:58N 55°41' E 012°36'0 0.0
2019-Aug-14 02:28N 55°41' E 012°36'0 0.0
2019-Aug-14 01:58N 55°41' E 012°36'0 0.0
2019-Aug-14 01:28N 55°41' E 012°36'0 0.0
2019-Aug-14 01:00N 55°41' E 012°36'0 0.0
2019-Aug-14 00:28N 55°41' E 012°36'0 0.0
2019-Aug-13 23:58N 55°41' E 012°36'0 0.0
2019-Aug-13 23:28N 55°41' E 012°36'0 0.0
2019-Aug-13 23:00N 55°41' E 012°36'0 0.0
2019-Aug-13 22:29N 55°41' E 012°36'0 0.0
2019-Aug-13 21:59N 55°41' E 012°36'0 0.0
2019-Aug-13 21:28N 55°41' E 012°36'0 0.0
2019-Aug-13 20:58N 55°41' E 012°36'0 0.0
2019-Aug-13 20:28N 55°41' E 012°36'0 0.0
2019-Aug-13 19:58N 55°41' E 012°36'0 0.0
2019-Aug-13 19:28N 55°41' E 012°36'0 0.0
2019-Aug-13 18:58N 55°41' E 012°36'0 0.0
2019-Aug-13 18:28N 55°41' E 012°36'0 0.0
2019-Aug-13 17:58N 55°41' E 012°36'0 0.0
2019-Aug-13 17:28N 55°41' E 012°36'0 0.0
2019-Aug-13 16:58N 55°41' E 012°36'0 0.0
2019-Aug-13 16:28N 55°41' E 012°36'0 0.0
2019-Aug-13 15:58N 55°41' E 012°36'0 0.0
2019-Aug-13 15:28N 55°41' E 012°36'0 0.0
2019-Aug-13 14:58N 55°41' E 012°36'0 0.0
2019-Aug-13 14:28N 55°41' E 012°36'0 0.0
2019-Aug-13 13:58N 55°41' E 012°36'0 0.0
2019-Aug-13 13:28N 55°41' E 012°36'0 0.0
2019-Aug-13 12:58N 55°41' E 012°36'0 0.0
2019-Aug-13 12:28N 55°41' E 012°36'0 0.0
2019-Aug-13 11:58N 55°41' E 012°36'0 0.0
2019-Aug-13 11:29N 55°41' E 012°36'0 0.6
2019-Aug-13 11:00N 55°41' E 012°36'2 4.1
2019-Aug-13 10:30N 55°41' E 012°39'3 5.5
2019-Aug-13 10:00N 55°38' E 012°42'3 5.1
2019-Aug-13 09:30N 55°36' E 012°42'3 5.0
2019-Aug-13 09:00N 55°33' E 012°42'3 5.4
2019-Aug-13 08:30N 55°31' E 012°40'3 6.7
2019-Aug-13 08:00N 55°28' E 012°37'4 7.0
2019-Aug-13 07:30N 55°25' E 012°34'3 6.8
2019-Aug-13 07:00N 55°22' E 012°31'3 6.1
2019-Aug-13 06:30N 55°19' E 012°29'1 1.0
2019-Aug-13 05:59N 55°19' E 012°28'0 0.0
2019-Aug-13 05:29N 55°19' E 012°28'0 0.0
2019-Aug-13 05:00N 55°19' E 012°28'0 0.0
2019-Aug-13 04:29N 55°19' E 012°28'0 0.0
2019-Aug-13 03:59N 55°19' E 012°28'0 0.0
2019-Aug-13 03:29N 55°19' E 012°28'0 0.0
2019-Aug-13 02:53N 55°19' E 012°28'0 0.0
2019-Aug-13 01:56N 55°19' E 012°28'0 0.0
2019-Aug-13 01:29N 55°19' E 012°28'0 0.0
2019-Aug-13 00:59N 55°19' E 012°28'0 0.0
2019-Aug-13 00:29N 55°19' E 012°28'0 0.0
2019-Aug-12 23:56N 55°19' E 012°28'0 0.0
2019-Aug-12 23:23N 55°19' E 012°28'0 0.0
2019-Aug-12 22:59N 55°19' E 012°28'0 0.0
2019-Aug-12 22:05N 55°19' E 012°28'0 0.0
2019-Aug-12 21:53N 55°19' E 012°28'0 0.0
2019-Aug-12 21:29N 55°19' E 012°28'0 0.3
2019-Aug-12 20:59N 55°18' E 012°28'3 6.7
2019-Aug-12 20:28N 55°15' E 012°29'21 7.6
2019-Aug-12 17:40N 54°54' E 012°32'8 7.0
2019-Aug-12 16:30N 54°46' E 012°26'2 4.6
2019-Aug-12 16:00N 54°44' E 012°25'2 4.6
2019-Aug-12 15:29N 54°42' E 012°24'3 4.6
2019-Aug-12 14:57N 54°40' E 012°22'3 4.2
2019-Aug-12 14:18N 54°37' E 012°21'7 4.5
2019-Aug-12 12:44N 54°30' E 012°17'1 4.3
2019-Aug-12 12:30N 54°29' E 012°16'3 5.0
2019-Aug-12 11:55N 54°27' E 012°14'7 5.1
2019-Aug-12 10:32N 54°20' E 012°09'0 4.8
2019-Aug-12 10:28N 54°20' E 012°09'2 5.2
2019-Aug-12 10:00N 54°18' E 012°07'  
Track history (hours):
 
Tides and Currents Weather Stations Pressure Air Temp Water Temp Dewpoint Dewpoint Depression Visibility Wind Speed Wind Dir Waves Ship Positions

Artemis (Netherlands)

Ship's website: http://www.tallship-company.com/artemis/gb_artemis.htm

Last reported at 2019-Aug-22 09:31 UTC. Time now 2019-Aug-22 09:33 UTC.
Position N 54°15' E 011°56'.

Length 59 m; draft 3.4 m.

Type: Sailing vessel. MMSI: 244875000.

Date/timePositionNaut miles runAvg speedWind from/ knotsBaromVisibWave heightAir tempDewpointWater temp
2019-Aug-22 09:31N 54°15' E 011°56'3 6.2
2019-Aug-22 08:59N 54°13' E 012°01'3 4.5
2019-Aug-22 08:21N 54°12' E 012°05'3 6.9
2019-Aug-22 07:58N 54°09' E 012°06'3 6.3
2019-Aug-22 07:27N 54°06' E 012°07'0 0.9
2019-Aug-22 06:57N 54°06' E 012°07'0 0.0
2019-Aug-22 06:30N 54°06' E 012°07'0 0.0
2019-Aug-22 04:24N 54°06' E 012°07'0 0.0
2019-Aug-22 03:15N 54°06' E 012°07'0 0.0
2019-Aug-22 02:51N 54°06' E 012°07'0 0.0
2019-Aug-22 01:00N 54°06' E 012°07'0 0.0
2019-Aug-21 22:57N 54°06' E 012°08'0 0.0
2019-Aug-21 21:39N 54°06' E 012°07'0 0.0
2019-Aug-21 21:30N 54°06' E 012°07'0 0.0
2019-Aug-21 20:42N 54°06' E 012°07'0 0.0
2019-Aug-21 20:30N 54°06' E 012°07'0 0.0
2019-Aug-21 18:54N 54°06' E 012°07'0 0.0
2019-Aug-21 18:30N 54°06' E 012°07'0 0.0
2019-Aug-21 17:54N 54°06' E 012°07'1 0.2
2019-Aug-21 15:29N 54°06' E 012°07'3 6.4
2019-Aug-21 15:00N 54°09' E 012°06'3 6.6
2019-Aug-21 14:30N 54°12' E 012°05'3 5.0
2019-Aug-21 13:59N 54°15' E 012°04'2 3.2
2019-Aug-21 13:30N 54°16' E 012°04'2 4.8
2019-Aug-21 13:00N 54°19' E 012°04'3 5.5
2019-Aug-21 12:30N 54°22' E 012°03'7 5.4
2019-Aug-21 11:14N 54°28' E 012°03'1 4.0
2019-Aug-21 11:00N 54°29' E 012°04'3 5.2
2019-Aug-21 10:30N 54°32' E 012°04'2 4.9
2019-Aug-21 10:00N 54°34' E 012°04'6 4.2
2019-Aug-21 08:29N 54°41' E 012°04'1 3.0
2019-Aug-21 08:00N 54°42' E 012°05'2 3.4
2019-Aug-21 07:30N 54°44' E 012°05'2 3.5
2019-Aug-21 07:00N 54°45' E 012°05'0 0.2
2019-Aug-21 06:29N 54°45' E 012°05'0 0.0
2019-Aug-21 05:56N 54°45' E 012°05'0 0.0
2019-Aug-21 05:11N 54°45' E 012°05'0 0.0
2019-Aug-21 04:50N 54°45' E 012°05'0 0.0
2019-Aug-21 04:26N 54°45' E 012°05'0 0.0
2019-Aug-21 03:59N 54°45' E 012°05'0 0.0
2019-Aug-21 03:29N 54°45' E 012°05'0 0.0
2019-Aug-21 02:47N 54°45' E 012°05'0 0.0
2019-Aug-21 02:29N 54°45' E 012°05'0 0.0
2019-Aug-21 01:38N 54°45' E 012°05'0 0.0
2019-Aug-21 01:02N 54°45' E 012°05'0 0.0
2019-Aug-21 00:50N 54°45' E 012°05'0 0.0
2019-Aug-21 00:29N 54°45' E 012°05'0 0.0
2019-Aug-20 23:44N 54°45' E 012°05'0 0.0
2019-Aug-20 23:08N 54°45' E 012°05'0 0.0
2019-Aug-20 22:41N 54°45' E 012°05'0 0.0
2019-Aug-20 22:29N 54°45' E 012°05'0 0.0
2019-Aug-20 21:59N 54°45' E 012°05'0 0.0
2019-Aug-20 21:29N 54°45' E 012°05'0 0.0
2019-Aug-20 21:00N 54°45' E 012°05'16 6.6
2019-Aug-20 18:34N 54°53' E 012°30'4 7.1
2019-Aug-20 18:02N 54°56' E 012°33'1 7.5
2019-Aug-20 17:57N 54°57' E 012°34'4 7.3
2019-Aug-20 17:28N 55°00' E 012°36'3 7.2
2019-Aug-20 17:00N 55°03' E 012°39'3 7.1
2019-Aug-20 16:30N 55°06' E 012°41'4 6.8
2019-Aug-20 15:57N 55°10' E 012°43'2 5.3
2019-Aug-20 15:30N 55°12' E 012°46'4 6.2
2019-Aug-20 14:55N 55°13' E 012°52'2 5.7
2019-Aug-20 14:30N 55°13' E 012°56'2 4.8
2019-Aug-20 14:00N 55°14' E 012°60'2 4.4
2019-Aug-20 13:30N 55°15' E 013°03'3 4.8
2019-Aug-20 12:55N 55°15' E 013°08'3 4.3
2019-Aug-20 12:18N 55°15' E 013°13'2 4.1
2019-Aug-20 11:47N 55°16' E 013°17'1 4.4
2019-Aug-20 11:28N 55°16' E 013°19'37 1.5
2019-Aug-19 10:48N 55°10' E 014°23'1 2.7
2019-Aug-19 10:29N 55°09' E 014°25'2 3.2
2019-Aug-19 09:47N 55°08' E 014°28'1 3.2
2019-Aug-19 09:27N 55°08' E 014°30'2 3.6
2019-Aug-19 08:58N 55°07' E 014°32'2 3.3
2019-Aug-19 08:29N 55°06' E 014°34'1 3.0
2019-Aug-19 08:00N 55°05' E 014°36'2 3.3
2019-Aug-19 07:30N 55°05' E 014°39'2 1.5
2019-Aug-19 06:25N 55°06' E 014°42'0 0.0
2019-Aug-19 05:49N 55°06' E 014°42'0 0.0
2019-Aug-19 05:25N 55°06' E 014°42'0 0.0
2019-Aug-19 04:55N 55°06' E 014°42'0 0.0
2019-Aug-19 04:25N 55°06' E 014°42'0 0.0
2019-Aug-19 03:55N 55°06' E 014°42'0 0.0
2019-Aug-19 03:25N 55°06' E 014°42'0 0.0
2019-Aug-19 02:49N 55°06' E 014°42'0 0.0
2019-Aug-19 02:25N 55°06' E 014°42'0 0.0
2019-Aug-19 01:55N 55°06' E 014°42'0 0.0
2019-Aug-19 01:25N 55°06' E 014°42'0 0.0
2019-Aug-19 00:43N 55°06' E 014°42'0 0.0
2019-Aug-19 00:19N 55°06' E 014°42'0 0.0
2019-Aug-18 23:49N 55°06' E 014°42'0 0.0
2019-Aug-18 23:25N 55°06' E 014°42'0 0.0
2019-Aug-18 22:55N 55°06' E 014°42'0 0.0
2019-Aug-18 22:19N 55°06' E 014°42'0 0.0
2019-Aug-18 21:55N 55°06' E 014°42'0 0.0
2019-Aug-18 21:25N 55°06' E 014°42'0 0.0
2019-Aug-18 20:49N 55°06' E 014°42'0 0.0
2019-Aug-18 19:43N 55°06' E 014°42'0 0.0
2019-Aug-18 19:25N 55°06' E 014°42'0 0.0
2019-Aug-18 18:55N 55°06' E 014°42'0 0.0
2019-Aug-18 18:19N 55°06' E 014°42'0 0.0
2019-Aug-18 17:49N 55°06' E 014°42'0 0.0
2019-Aug-18 17:25N 55°06' E 014°42'0 0.0
2019-Aug-18 16:37N 55°06' E 014°42'0 0.0
2019-Aug-18 16:13N 55°06' E 014°42'0 0.0
2019-Aug-18 15:55N 55°06' E 014°42'0 0.0
2019-Aug-18 15:19N 55°06' E 014°42'0 0.0
2019-Aug-18 14:55N 55°06' E 014°42'0 0.0
2019-Aug-18 14:25N 55°06' E 014°42'0 0.0
2019-Aug-18 13:55N 55°06' E 014°42'0 0.0
2019-Aug-18 13:25N 55°06' E 014°42'0 0.0
2019-Aug-18 12:55N 55°06' E 014°42'0 0.0
2019-Aug-18 11:55N 55°06' E 014°42'0 0.0
2019-Aug-18 10:37N 55°06' E 014°42'0 0.0
2019-Aug-18 10:07N 55°06' E 014°42'0 0.0
2019-Aug-18 09:55N 55°06' E 014°42'0 0.0
2019-Aug-18 09:25N 55°06' E 014°42'0 0.0
2019-Aug-18 08:31N 55°06' E 014°42'0 0.1
2019-Aug-18 08:25N 55°06' E 014°42'0 0.0
2019-Aug-18 07:49N 55°06' E 014°42'0 0.0
2019-Aug-18 06:43N 55°06' E 014°42'0 0.0
2019-Aug-18 06:25N 55°06' E 014°42'0 0.0
2019-Aug-18 05:49N 55°06' E 014°42'0 0.0
2019-Aug-18 05:30N 55°06' E 014°42'0 0.3
2019-Aug-18 05:00N 55°06' E 014°41'2 4.8
2019-Aug-18 04:30N 55°05' E 014°38'2 5.1
2019-Aug-18 04:00N 55°04' E 014°34'3 5.1
2019-Aug-18 03:29N 55°02' E 014°30'43 5.9
2019-Aug-17 20:08N 54°44' E 013°21'1 6.0
2019-Aug-17 19:59N 54°44' E 013°20'3 4.0
2019-Aug-17 19:12N 54°42' E 013°15'1 6.0
2019-Aug-17 19:00N 54°42' E 013°13'3 6.1
2019-Aug-17 18:29N 54°41' E 013°08'6 6.2
2019-Aug-17 17:29N 54°38' E 012°58'3 6.4
2019-Aug-17 17:00N 54°37' E 012°54'3 6.1
2019-Aug-17 16:30N 54°35' E 012°49'4 4.0
2019-Aug-17 15:35N 54°34' E 012°43'0 3.2
2019-Aug-17 15:30N 54°34' E 012°43'3 4.2
2019-Aug-17 14:54N 54°33' E 012°39'3 3.0
2019-Aug-17 13:51N 54°31' E 012°34'2 3.1
2019-Aug-17 13:19N 54°31' E 012°31'4 3.6
2019-Aug-17 12:07N 54°28' E 012°26'1 5.3
2019-Aug-17 11:54N 54°27' E 012°24'2 4.4
2019-Aug-17 11:30N 54°26' E 012°22'11 5.6
2019-Aug-17 09:29N 54°17' E 012°10'2 5.2
2019-Aug-17 09:01N 54°15' E 012°08'2 4.6
2019-Aug-17 08:30N 54°13' E 012°06'4 6.2
2019-Aug-17 07:53N 54°09' E 012°06'3 6.5
2019-Aug-17 07:29N 54°06' E 012°06'1 0.3
2019-Aug-17 03:58N 54°06' E 012°07'0 0.0
2019-Aug-17 02:16N 54°06' E 012°07'0 0.0
2019-Aug-16 23:46N 54°06' E 012°07'0 0.0
2019-Aug-16 21:49N 54°06' E 012°07'0 0.0
2019-Aug-16 20:07N 54°06' E 012°07'0 0.0
2019-Aug-16 14:25N 54°06' E 012°07'0 0.0
2019-Aug-16 10:55N 54°06' E 012°07'0 0.0
2019-Aug-16 08:55N 54°06' E 012°07'0 0.0
2019-Aug-16 08:25N 54°06' E 012°07'0 0.0
2019-Aug-16 05:43N 54°06' E 012°07'0 0.0
2019-Aug-16 05:28N 54°06' E 012°07'0 0.0
2019-Aug-16 01:19N 54°06' E 012°07'0 0.0
2019-Aug-16 00:55N 54°06' E 012°07'0 0.0
2019-Aug-15 22:04N 54°06' E 012°07'0 0.0
2019-Aug-15 19:13N 54°06' E 012°07'0 0.0
2019-Aug-15 18:58N 54°06' E 012°07'2 0.4
2019-Aug-15 14:44N 54°07' E 012°06'1 6.1
2019-Aug-15 14:30N 54°08' E 012°06'3 6.0
2019-Aug-15 14:00N 54°11' E 012°05'5 5.2
2019-Aug-15 12:58N 54°12' E 011°56'1 3.0
2019-Aug-15 12:29N 54°12' E 011°54'3 5.5
2019-Aug-15 12:00N 54°13' E 011°58'5 4.8
2019-Aug-15 10:59N 54°14' E 012°06'2 4.2
2019-Aug-15 10:31N 54°15' E 012°09'2 4.0
2019-Aug-15 09:59N 54°16' E 012°12'3 3.6
2019-Aug-15 09:09N 54°18' E 012°16'1 2.6
2019-Aug-15 08:44N 54°19' E 012°17'1 2.9
2019-Aug-15 08:30N 54°19' E 012°18'1 1.6
2019-Aug-15 07:41N 54°19' E 012°20'0 0.4
2019-Aug-15 07:30N 54°19' E 012°20'0 0.0
2019-Aug-15 06:45N 54°19' E 012°20'0 0.0
2019-Aug-15 06:03N 54°19' E 012°20'0 0.0
2019-Aug-15 04:45N 54°19' E 012°20'0 0.0
2019-Aug-15 04:30N 54°19' E 012°20'0 0.0
2019-Aug-15 04:00N 54°19' E 012°20'0 0.0
2019-Aug-15 03:30N 54°19' E 012°20'0 0.0
2019-Aug-15 03:00N 54°19' E 012°20'0 0.0
2019-Aug-15 02:30N 54°19' E 012°20'0 0.0
2019-Aug-15 02:00N 54°19' E 012°20'0 0.0
2019-Aug-15 01:27N 54°19' E 012°20'0 0.0
2019-Aug-15 00:27N 54°19' E 012°20'0 0.0
2019-Aug-15 00:00N 54°19' E 012°20'4 1.5
2019-Aug-14 21:04N 54°24' E 012°21'1 6.7
2019-Aug-14 20:57N 54°24' E 012°22'3 6.7
2019-Aug-14 20:30N 54°27' E 012°24'10 6.3
2019-Aug-14 18:59N 54°36' E 012°31'3 6.0
2019-Aug-14 18:30N 54°39' E 012°32'3 6.6
2019-Aug-14 18:00N 54°42' E 012°32'16 7.4
2019-Aug-14 15:52N 54°58' E 012°35'3 8.0
2019-Aug-14 15:30N 55°01' E 012°36'4 7.6
2019-Aug-14 15:00N 55°04' E 012°37'4 8.0
2019-Aug-14 14:29N 55°08' E 012°37'3 7.0
2019-Aug-14 14:00N 55°12' E 012°36'4 7.8
2019-Aug-14 13:30N 55°16' E 012°36'3 6.5
2019-Aug-14 13:00N 55°19' E 012°37'2 4.0
2019-Aug-14 12:30N 55°21' E 012°37'2 3.7
2019-Aug-14 11:59N 55°23' E 012°38'2 3.6
2019-Aug-14 11:29N 55°24' E 012°39'2 3.1
2019-Aug-14 11:00N 55°26' E 012°39'2 3.5
2019-Aug-14 10:30N 55°28' E 012°40'2 4.2
2019-Aug-14 10:00N 55°30' E 012°41'2 3.7
2019-Aug-14 09:30N 55°31' E 012°41'2 3.4
2019-Aug-14 09:00N 55°33' E 012°41'3 5.3
2019-Aug-14 08:30N 55°36' E 012°42'4 8.5
2019-Aug-14 08:00N 55°40' E 012°40'3 5.5
2019-Aug-14 07:30N 55°42' E 012°36'1 1.1
2019-Aug-14 06:58N 55°41' E 012°36'0 0.0
2019-Aug-14 06:28N 55°41' E 012°36'0 0.0
2019-Aug-14 05:58N 55°41' E 012°36'0 0.0
2019-Aug-14 05:28N 55°41' E 012°36'0 0.0
2019-Aug-14 04:58N 55°41' E 012°36'0 0.0
2019-Aug-14 04:28N 55°41' E 012°36'0 0.0
2019-Aug-14 03:58N 55°41' E 012°36'0 0.0
2019-Aug-14 03:29N 55°41' E 012°36'0 0.0
2019-Aug-14 02:58N 55°41' E 012°36'0 0.0
2019-Aug-14 02:28N 55°41' E 012°36'0 0.0
2019-Aug-14 01:58N 55°41' E 012°36'0 0.0
2019-Aug-14 01:28N 55°41' E 012°36'0 0.0
2019-Aug-14 01:00N 55°41' E 012°36'0 0.0
2019-Aug-14 00:28N 55°41' E 012°36'0 0.0
2019-Aug-13 23:58N 55°41' E 012°36'0 0.0
2019-Aug-13 23:28N 55°41' E 012°36'0 0.0
2019-Aug-13 23:00N 55°41' E 012°36'0 0.0
2019-Aug-13 22:29N 55°41' E 012°36'0 0.0
2019-Aug-13 21:59N 55°41' E 012°36'0 0.0
2019-Aug-13 21:28N 55°41' E 012°36'0 0.0
2019-Aug-13 20:58N 55°41' E 012°36'0 0.0
2019-Aug-13 20:28N 55°41' E 012°36'0 0.0
2019-Aug-13 19:58N 55°41' E 012°36'0 0.0
2019-Aug-13 19:28N 55°41' E 012°36'0 0.0
2019-Aug-13 18:58N 55°41' E 012°36'0 0.0
2019-Aug-13 18:28N 55°41' E 012°36'0 0.0
2019-Aug-13 17:58N 55°41' E 012°36'0 0.0
2019-Aug-13 17:28N 55°41' E 012°36'0 0.0
2019-Aug-13 16:58N 55°41' E 012°36'0 0.0
2019-Aug-13 16:28N 55°41' E 012°36'0 0.0
2019-Aug-13 15:58N 55°41' E 012°36'0 0.0
2019-Aug-13 15:28N 55°41' E 012°36'0 0.0
2019-Aug-13 14:58N 55°41' E 012°36'0 0.0
2019-Aug-13 14:28N 55°41' E 012°36'0 0.0
2019-Aug-13 13:58N 55°41' E 012°36'0 0.0
2019-Aug-13 13:28N 55°41' E 012°36'0 0.0
2019-Aug-13 12:58N 55°41' E 012°36'0 0.0
2019-Aug-13 12:28N 55°41' E 012°36'0 0.0
2019-Aug-13 11:58N 55°41' E 012°36'0 0.0
2019-Aug-13 11:29N 55°41' E 012°36'0 0.6
2019-Aug-13 11:00N 55°41' E 012°36'2 4.1
2019-Aug-13 10:30N 55°41' E 012°39'3 5.5
2019-Aug-13 10:00N 55°38' E 012°42'3 5.1
2019-Aug-13 09:30N 55°36' E 012°42'3 5.0
2019-Aug-13 09:00N 55°33' E 012°42'3 5.4
2019-Aug-13 08:30N 55°31' E 012°40'3 6.7
2019-Aug-13 08:00N 55°28' E 012°37'4 7.0
2019-Aug-13 07:30N 55°25' E 012°34'3 6.8
2019-Aug-13 07:00N 55°22' E 012°31'3 6.1
2019-Aug-13 06:30N 55°19' E 012°29'1 1.0
2019-Aug-13 05:59N 55°19' E 012°28'0 0.0
2019-Aug-13 05:29N 55°19' E 012°28'0 0.0
2019-Aug-13 05:00N 55°19' E 012°28'0 0.0
2019-Aug-13 04:29N 55°19' E 012°28'0 0.0
2019-Aug-13 03:59N 55°19' E 012°28'0 0.0
2019-Aug-13 03:29N 55°19' E 012°28'0 0.0
2019-Aug-13 02:53N 55°19' E 012°28'0 0.0
2019-Aug-13 01:56N 55°19' E 012°28'0 0.0
2019-Aug-13 01:29N 55°19' E 012°28'0 0.0
2019-Aug-13 00:59N 55°19' E 012°28'0 0.0
2019-Aug-13 00:29N 55°19' E 012°28'0 0.0
2019-Aug-12 23:56N 55°19' E 012°28'0 0.0
2019-Aug-12 23:23N 55°19' E 012°28'0 0.0
2019-Aug-12 22:59N 55°19' E 012°28'0 0.0
2019-Aug-12 22:05N 55°19' E 012°28'0 0.0
2019-Aug-12 21:53N 55°19' E 012°28'0 0.0
2019-Aug-12 21:29N 55°19' E 012°28'0 0.3
2019-Aug-12 20:59N 55°18' E 012°28'3 6.7
2019-Aug-12 20:28N 55°15' E 012°29'21 7.6
2019-Aug-12 17:40N 54°54' E 012°32'8 7.0
2019-Aug-12 16:30N 54°46' E 012°26'2 4.6
2019-Aug-12 16:00N 54°44' E 012°25'2 4.6
2019-Aug-12 15:29N 54°42' E 012°24'3 4.6
2019-Aug-12 14:57N 54°40' E 012°22'3 4.2
2019-Aug-12 14:18N 54°37' E 012°21'7 4.5
2019-Aug-12 12:44N 54°30' E 012°17'1 4.3
2019-Aug-12 12:30N 54°29' E 012°16'3 5.0
2019-Aug-12 11:55N 54°27' E 012°14'7 5.1
2019-Aug-12 10:32N 54°20' E 012°09'0 4.8
2019-Aug-12 10:28N 54°20' E 012°09'2 5.2
2019-Aug-12 10:00N 54°18' E 012°07'  

Dump ship's entire track history